createdAt,value
2018-06-17T00:00:06.201Z,0.00
2018-06-17T00:01:06.219Z,0.00
2018-06-17T00:02:06.244Z,0.00
2018-06-17T00:03:06.265Z,0.00
2018-06-17T00:04:06.305Z,0.00
2018-06-17T00:05:06.323Z,0.00
2018-06-17T00:06:06.346Z,0.00
2018-06-17T00:07:06.374Z,0.00
2018-06-17T00:08:06.399Z,0.00
2018-06-17T00:09:06.430Z,0.00
2018-06-17T00:10:06.448Z,0.00
2018-06-17T00:11:06.479Z,0.00
2018-06-17T00:12:06.513Z,0.00
2018-06-17T00:13:06.529Z,0.00
2018-06-17T00:14:06.554Z,0.00
2018-06-17T00:15:06.579Z,0.00
2018-06-17T00:16:06.607Z,0.00
2018-06-17T00:17:06.642Z,0.00
2018-06-17T00:18:06.658Z,0.00
2018-06-17T00:19:06.689Z,0.00
2018-06-17T00:20:06.714Z,0.00
2018-06-17T00:21:06.740Z,0.00
2018-06-17T00:22:06.771Z,0.00
2018-06-17T00:23:06.789Z,0.00
2018-06-17T00:24:06.818Z,0.00
2018-06-17T00:25:06.843Z,0.00
2018-06-17T00:26:06.876Z,0.00
2018-06-17T00:27:06.898Z,0.00
2018-06-17T00:28:06.925Z,0.00
2018-06-17T00:29:06.951Z,0.00
2018-06-17T00:30:06.978Z,0.00
2018-06-17T00:31:07.003Z,0.00
2018-06-17T00:32:07.028Z,0.00
2018-06-17T00:33:07.059Z,0.00
2018-06-17T00:34:07.094Z,0.00
2018-06-17T00:35:07.111Z,0.00
2018-06-17T00:36:07.137Z,0.00
2018-06-17T00:37:07.167Z,0.00
2018-06-17T00:38:07.187Z,0.00
2018-06-17T00:39:07.270Z,0.00
2018-06-17T00:40:07.241Z,0.00
2018-06-17T00:41:07.270Z,0.00
2018-06-17T00:42:07.296Z,0.00
2018-06-17T00:43:07.317Z,0.00
2018-06-17T00:44:07.343Z,0.00
2018-06-17T00:45:07.377Z,0.00
2018-06-17T00:46:07.408Z,0.00
2018-06-17T00:47:07.423Z,0.00
2018-06-17T00:48:07.453Z,0.00
2018-06-17T00:49:07.481Z,0.00
2018-06-17T00:50:07.503Z,0.00
2018-06-17T00:51:07.533Z,0.00
2018-06-17T00:52:07.561Z,0.00
2018-06-17T00:53:07.582Z,0.00
2018-06-17T00:54:07.609Z,0.00
2018-06-17T00:55:07.639Z,0.00
2018-06-17T00:56:07.662Z,0.00
2018-06-17T00:57:07.696Z,0.00
2018-06-17T00:58:07.717Z,0.00
2018-06-17T00:59:07.740Z,0.00
2018-06-17T01:00:07.773Z,0.00
2018-06-17T01:01:07.793Z,0.00
2018-06-17T01:02:07.821Z,0.00
2018-06-17T01:03:07.851Z,0.00
2018-06-17T01:04:07.872Z,0.00
2018-06-17T01:05:07.904Z,0.00
2018-06-17T01:06:07.928Z,0.00
2018-06-17T01:07:07.952Z,0.00
2018-06-17T01:08:07.979Z,0.00
2018-06-17T01:09:08.006Z,0.00
2018-06-17T01:10:08.031Z,0.00
2018-06-17T01:11:08.055Z,0.00
2018-06-17T01:12:08.081Z,0.00
2018-06-17T01:13:08.115Z,0.00
2018-06-17T01:14:08.136Z,0.00
2018-06-17T01:15:08.164Z,0.00
2018-06-17T01:16:08.186Z,0.00
2018-06-17T01:17:08.220Z,0.00
2018-06-17T01:18:08.245Z,0.00
2018-06-17T01:19:08.266Z,0.00
2018-06-17T01:20:08.291Z,0.00
2018-06-17T01:21:08.325Z,0.00
2018-06-17T01:22:08.339Z,0.00
2018-06-17T01:23:08.365Z,0.00
2018-06-17T01:24:08.395Z,0.00
2018-06-17T01:25:08.420Z,0.00
2018-06-17T01:26:08.445Z,0.00
2018-06-17T01:27:08.474Z,0.00
2018-06-17T01:28:08.495Z,0.00
2018-06-17T01:29:08.520Z,0.00
2018-06-17T01:30:08.558Z,0.00
2018-06-17T01:31:08.577Z,0.00
2018-06-17T01:32:08.603Z,0.00
2018-06-17T01:33:08.625Z,0.00
2018-06-17T01:34:08.655Z,0.00
2018-06-17T01:35:08.680Z,0.00
2018-06-17T01:36:08.702Z,0.00
2018-06-17T01:37:08.730Z,0.00
2018-06-17T01:38:08.753Z,0.00
2018-06-17T01:39:08.783Z,0.00
2018-06-17T01:40:08.804Z,0.00
2018-06-17T01:41:08.830Z,0.00
2018-06-17T01:42:08.855Z,0.00
2018-06-17T01:43:08.884Z,0.00
2018-06-17T01:44:08.910Z,0.00
2018-06-17T01:45:08.938Z,0.00
2018-06-17T01:46:08.965Z,0.00
2018-06-17T01:47:08.988Z,0.00
2018-06-17T01:48:09.009Z,0.00
2018-06-17T01:49:09.041Z,0.00
2018-06-17T01:50:09.065Z,0.00
2018-06-17T01:51:09.093Z,0.00
2018-06-17T01:52:09.115Z,0.00
2018-06-17T01:53:09.140Z,0.00
2018-06-17T01:54:09.170Z,0.00
2018-06-17T01:55:09.194Z,0.00
2018-06-17T01:56:09.219Z,0.00
2018-06-17T01:57:09.243Z,0.00
2018-06-17T01:58:09.269Z,0.00
2018-06-17T01:59:09.301Z,0.00
2018-06-17T02:00:09.326Z,0.00
2018-06-17T02:01:09.350Z,0.00
2018-06-17T02:02:09.373Z,0.00
2018-06-17T02:03:09.399Z,0.00
2018-06-17T02:04:09.423Z,0.00
2018-06-17T02:05:09.450Z,0.00
2018-06-17T02:06:09.478Z,0.00
2018-06-17T02:07:09.497Z,0.00
2018-06-17T02:08:09.529Z,4.00
2018-06-17T02:09:09.552Z,4.00
2018-06-17T02:10:09.582Z,4.00
2018-06-17T02:11:09.603Z,4.00
2018-06-17T02:12:09.629Z,4.00
2018-06-17T02:13:09.657Z,4.00
2018-06-17T02:14:09.682Z,0.00
2018-06-17T02:15:09.708Z,0.00
2018-06-17T02:16:09.736Z,0.00
2018-06-17T02:17:09.761Z,4.00
2018-06-17T02:18:09.791Z,4.00
2018-06-17T02:19:09.810Z,4.00
2018-06-17T02:20:09.838Z,4.00
2018-06-17T02:21:09.861Z,4.00
2018-06-17T02:22:09.896Z,4.00
2018-06-17T02:23:09.918Z,4.00
2018-06-17T02:24:09.945Z,8.00
2018-06-17T02:25:09.974Z,4.00
2018-06-17T02:26:10.006Z,8.00
2018-06-17T02:27:10.017Z,12.00
2018-06-17T02:28:10.049Z,12.00
2018-06-17T02:29:10.072Z,16.00
2018-06-17T02:30:10.098Z,16.00
2018-06-17T02:31:10.125Z,16.00
2018-06-17T02:32:10.148Z,24.00
2018-06-17T02:33:10.177Z,24.00
2018-06-17T02:34:10.203Z,32.00
2018-06-17T02:35:10.231Z,32.00
2018-06-17T02:36:10.256Z,40.00
2018-06-17T02:37:10.285Z,40.00
2018-06-17T02:38:10.313Z,48.00
2018-06-17T02:39:10.333Z,52.00
2018-06-17T02:40:10.358Z,56.00
2018-06-17T02:41:10.392Z,64.00
2018-06-17T02:42:10.414Z,72.00
2018-06-17T02:43:10.438Z,80.00
2018-06-17T02:44:10.463Z,88.00
2018-06-17T02:45:10.494Z,100.00
2018-06-17T02:46:10.518Z,112.00
2018-06-17T02:47:10.542Z,124.00
2018-06-17T02:48:10.568Z,132.00
2018-06-17T02:49:10.592Z,140.00
2018-06-17T02:50:10.624Z,152.00
2018-06-17T02:51:10.641Z,156.00
2018-06-17T02:52:10.676Z,168.00
2018-06-17T02:53:10.702Z,176.00
2018-06-17T02:54:10.728Z,184.00
2018-06-17T02:55:10.750Z,192.00
2018-06-17T02:56:10.773Z,196.00
2018-06-17T02:57:10.804Z,200.00
2018-06-17T02:58:10.834Z,200.00
2018-06-17T02:59:10.851Z,200.00
2018-06-17T03:00:10.881Z,196.00
2018-06-17T03:01:10.909Z,200.00
2018-06-17T03:02:10.931Z,204.00
2018-06-17T03:03:10.957Z,212.00
2018-06-17T03:04:10.982Z,220.00
2018-06-17T03:05:11.011Z,228.00
2018-06-17T03:06:11.037Z,228.00
2018-06-17T03:07:11.060Z,236.00
2018-06-17T03:08:11.086Z,252.00
2018-06-17T03:09:11.118Z,272.00
2018-06-17T03:10:11.142Z,292.00
2018-06-17T03:11:11.165Z,324.00
2018-06-17T03:12:11.194Z,368.00
2018-06-17T03:13:11.216Z,432.00
2018-06-17T03:14:11.243Z,504.00
2018-06-17T03:15:11.270Z,568.00
2018-06-17T03:16:11.296Z,620.00
2018-06-17T03:17:11.319Z,668.00
2018-06-17T03:18:11.353Z,704.00
2018-06-17T03:19:11.379Z,744.00
2018-06-17T03:20:11.399Z,816.00
2018-06-17T03:21:11.424Z,888.00
2018-06-17T03:22:11.459Z,932.00
2018-06-17T03:23:11.478Z,952.00
2018-06-17T03:24:11.507Z,972.00
2018-06-17T03:25:11.532Z,980.00
2018-06-17T03:26:11.577Z,984.00
2018-06-17T03:27:11.585Z,996.00
2018-06-17T03:28:11.610Z,1016.00
2018-06-17T03:29:11.634Z,1036.00
2018-06-17T03:30:11.663Z,1056.00
2018-06-17T03:31:11.686Z,1076.00
2018-06-17T03:32:11.714Z,1084.00
2018-06-17T03:33:11.740Z,1096.00
2018-06-17T03:34:11.769Z,1116.00
2018-06-17T03:35:11.791Z,1168.00
2018-06-17T03:36:11.814Z,1232.00
2018-06-17T03:37:11.846Z,1252.00
2018-06-17T03:38:11.866Z,1232.00
2018-06-17T03:39:11.898Z,1260.00
2018-06-17T03:40:11.923Z,1200.00
2018-06-17T03:41:11.944Z,1212.00
2018-06-17T03:42:11.979Z,1272.00
2018-06-17T03:43:11.999Z,1296.00
2018-06-17T03:44:12.029Z,1328.00
2018-06-17T03:45:12.053Z,1440.00
2018-06-17T03:46:12.073Z,1616.00
2018-06-17T03:47:12.108Z,1780.00
2018-06-17T03:48:12.132Z,1788.00
2018-06-17T03:49:12.153Z,1780.00
2018-06-17T03:50:12.183Z,1796.00
2018-06-17T03:51:12.205Z,1784.00
2018-06-17T03:52:12.233Z,1820.00
2018-06-17T03:53:12.263Z,1844.00
2018-06-17T03:54:12.284Z,1800.00
2018-06-17T03:55:12.313Z,1828.00
2018-06-17T03:56:12.336Z,1860.00
2018-06-17T03:57:12.372Z,1928.00
2018-06-17T03:58:12.397Z,2048.00
2018-06-17T03:59:12.418Z,2108.00
2018-06-17T04:00:12.438Z,2124.00
2018-06-17T04:01:12.464Z,2144.00
2018-06-17T04:02:12.493Z,2100.00
2018-06-17T04:03:12.516Z,2064.00
2018-06-17T04:04:12.648Z,2024.00
2018-06-17T04:05:12.572Z,2068.00
2018-06-17T04:06:12.599Z,2168.00
2018-06-17T04:07:12.618Z,2236.00
2018-06-17T04:08:12.648Z,2208.00
2018-06-17T04:09:12.675Z,2148.00
2018-06-17T04:10:12.698Z,2148.00
2018-06-17T04:11:12.728Z,2164.00
2018-06-17T04:12:12.747Z,2196.00
2018-06-17T04:13:12.778Z,2212.00
2018-06-17T04:14:12.803Z,2244.00
2018-06-17T04:15:12.828Z,2268.00
2018-06-17T04:16:12.862Z,2304.00
2018-06-17T04:17:12.877Z,2356.00
2018-06-17T04:18:12.907Z,2384.00
2018-06-17T04:19:12.932Z,2396.00
2018-06-17T04:20:12.957Z,2396.00
2018-06-17T04:21:12.982Z,2408.00
2018-06-17T04:22:13.007Z,2428.00
2018-06-17T04:23:13.035Z,2444.00
2018-06-17T04:24:13.057Z,2472.00
2018-06-17T04:25:13.082Z,2508.00
2018-06-17T04:26:13.115Z,2560.00
2018-06-17T04:27:13.137Z,2616.00
2018-06-17T04:28:13.166Z,2680.00
2018-06-17T04:29:13.186Z,2724.00
2018-06-17T04:30:13.216Z,2756.00
2018-06-17T04:31:13.237Z,2784.00
2018-06-17T04:32:13.268Z,2808.00
2018-06-17T04:33:13.295Z,2832.00
2018-06-17T04:34:13.316Z,2852.00
2018-06-17T04:35:13.346Z,2872.00
2018-06-17T04:36:13.366Z,2896.00
2018-06-17T04:37:13.392Z,2904.00
2018-06-17T04:38:13.416Z,2924.00
2018-06-17T04:39:13.449Z,2936.00
2018-06-17T04:40:13.471Z,2940.00
2018-06-17T04:41:13.495Z,2952.00
2018-06-17T04:42:13.522Z,2976.00
2018-06-17T04:43:13.546Z,2996.00
2018-06-17T04:44:13.570Z,3024.00
2018-06-17T04:45:13.600Z,3056.00
2018-06-17T04:46:13.624Z,3072.00
2018-06-17T04:47:13.656Z,3088.00
2018-06-17T04:48:13.677Z,3120.00
2018-06-17T04:49:13.701Z,3136.00
2018-06-17T04:50:13.725Z,3176.00
2018-06-17T04:51:13.750Z,3204.00
2018-06-17T04:52:13.779Z,3220.00
2018-06-17T04:53:13.809Z,3232.00
2018-06-17T04:54:13.835Z,3248.00
2018-06-17T04:55:13.859Z,3256.00
2018-06-17T04:56:13.886Z,3268.00
2018-06-17T04:57:13.910Z,3276.00
2018-06-17T04:58:13.934Z,3276.00
2018-06-17T04:59:13.958Z,3288.00
2018-06-17T05:00:13.985Z,3296.00
2018-06-17T05:01:14.013Z,3316.00
2018-06-17T05:02:14.038Z,3336.00
2018-06-17T05:03:14.061Z,3364.00
2018-06-17T05:04:14.087Z,3400.00
2018-06-17T05:05:14.164Z,3436.00
2018-06-17T05:06:14.143Z,3468.00
2018-06-17T05:07:14.163Z,3500.00
2018-06-17T05:08:14.194Z,3544.00
2018-06-17T05:09:14.216Z,3584.00
2018-06-17T05:10:14.240Z,3632.00
2018-06-17T05:11:14.265Z,3716.00
2018-06-17T05:12:14.295Z,3836.00
2018-06-17T05:13:14.319Z,3976.00
2018-06-17T05:14:14.344Z,4132.00
2018-06-17T05:15:14.366Z,4336.00
2018-06-17T05:16:14.391Z,4556.00
2018-06-17T05:17:14.425Z,4700.00
2018-06-17T05:18:14.449Z,4760.00
2018-06-17T05:19:14.469Z,4764.00
2018-06-17T05:20:14.504Z,4724.00
2018-06-17T05:21:14.519Z,4636.00
2018-06-17T05:22:14.550Z,4592.00
2018-06-17T05:23:14.575Z,4848.00
2018-06-17T05:24:14.605Z,5200.00
2018-06-17T05:25:14.625Z,5520.00
2018-06-17T05:26:14.650Z,5936.00
2018-06-17T05:27:14.675Z,6256.00
2018-06-17T05:28:14.705Z,6504.00
2018-06-17T05:29:14.734Z,6416.00
2018-06-17T05:30:14.758Z,6292.00
2018-06-17T05:31:14.779Z,6100.00
2018-06-17T05:32:14.805Z,5940.00
2018-06-17T05:33:14.829Z,5988.00
2018-06-17T05:34:14.866Z,5840.00
2018-06-17T05:35:14.889Z,5792.00
2018-06-17T05:36:14.909Z,5764.00
2018-06-17T05:37:14.933Z,5804.00
2018-06-17T05:38:14.960Z,5896.00
2018-06-17T05:39:14.984Z,5988.00
2018-06-17T05:40:15.024Z,6068.00
2018-06-17T05:41:15.039Z,6148.00
2018-06-17T05:42:15.064Z,6116.00
2018-06-17T05:43:15.093Z,6036.00
2018-06-17T05:44:15.114Z,6040.00
2018-06-17T05:45:15.148Z,6020.00
2018-06-17T05:46:15.189Z,6144.00
2018-06-17T05:47:15.251Z,6292.00
2018-06-17T05:48:15.223Z,6404.00
2018-06-17T05:49:15.249Z,6252.00
2018-06-17T05:50:15.274Z,6316.00
2018-06-17T05:51:15.298Z,6420.00
2018-06-17T05:52:15.331Z,6528.00
2018-06-17T05:53:15.353Z,6780.00
2018-06-17T05:54:15.378Z,6928.00
2018-06-17T05:55:15.410Z,6772.00
2018-06-17T05:56:15.433Z,6328.00
2018-06-17T05:57:15.459Z,6144.00
2018-06-17T05:58:15.493Z,6348.00
2018-06-17T05:59:15.512Z,6656.00
2018-06-17T06:00:15.540Z,6776.00
2018-06-17T06:01:15.572Z,6612.00
2018-06-17T06:02:15.597Z,6476.00
2018-06-17T06:03:15.621Z,6172.00
2018-06-17T06:04:15.642Z,6084.00
2018-06-17T06:05:15.674Z,6236.00
2018-06-17T06:06:15.702Z,6264.00
2018-06-17T06:07:15.726Z,5964.00
2018-06-17T06:08:15.747Z,5704.00
2018-06-17T06:09:15.781Z,6016.00
2018-06-17T06:10:15.854Z,7452.00
2018-06-17T06:11:15.832Z,8532.00
2018-06-17T06:12:15.856Z,8644.00
2018-06-17T06:13:15.891Z,8356.00
2018-06-17T06:14:15.913Z,8040.00
2018-06-17T06:15:15.931Z,7784.00
2018-06-17T06:16:15.961Z,7716.00
2018-06-17T06:17:15.987Z,7740.00
2018-06-17T06:18:16.021Z,7656.00
2018-06-17T06:19:16.036Z,7604.00
2018-06-17T06:20:16.067Z,7736.00
2018-06-17T06:21:16.091Z,7900.00
2018-06-17T06:22:16.116Z,8056.00
2018-06-17T06:23:16.146Z,8068.00
2018-06-17T06:24:16.174Z,8004.00
2018-06-17T06:25:16.200Z,7812.00
2018-06-17T06:26:16.238Z,7904.00
2018-06-17T06:27:16.255Z,8372.00
2018-06-17T06:28:16.277Z,8736.00
2018-06-17T06:29:16.302Z,8824.00
2018-06-17T06:30:16.333Z,8620.00
2018-06-17T06:31:16.357Z,8376.00
2018-06-17T06:32:16.382Z,8256.00
2018-06-17T06:33:16.412Z,8408.00
2018-06-17T06:34:16.437Z,8224.00
2018-06-17T06:35:16.461Z,7892.00
2018-06-17T06:36:16.492Z,8164.00
2018-06-17T06:37:16.541Z,8556.00
2018-06-17T06:38:16.547Z,8776.00
2018-06-17T06:39:16.568Z,8956.00
2018-06-17T06:40:16.597Z,9084.00
2018-06-17T06:41:16.638Z,9012.00
2018-06-17T06:42:16.652Z,8872.00
2018-06-17T06:43:16.677Z,8936.00
2018-06-17T06:44:16.705Z,8804.00
2018-06-17T06:45:16.734Z,8384.00
2018-06-17T06:46:16.755Z,8544.00
2018-06-17T06:47:16.780Z,9240.00
2018-06-17T06:48:16.809Z,9396.00
2018-06-17T06:49:16.834Z,9464.00
2018-06-17T06:50:16.864Z,9804.00
2018-06-17T06:51:16.887Z,9776.00
2018-06-17T06:52:16.918Z,9776.00
2018-06-17T06:53:16.945Z,9772.00
2018-06-17T06:54:16.988Z,9380.00
2018-06-17T06:55:16.996Z,9176.00
2018-06-17T06:56:17.020Z,9256.00
2018-06-17T06:57:17.051Z,9296.00
2018-06-17T06:58:17.078Z,9884.00
2018-06-17T06:59:17.099Z,10088.00
2018-06-17T07:00:17.136Z,10104.00
2018-06-17T07:01:17.168Z,9988.00
2018-06-17T07:02:17.184Z,9488.00
2018-06-17T07:03:17.213Z,9140.00
2018-06-17T07:04:17.238Z,8476.00
2018-06-17T07:05:17.264Z,7884.00
2018-06-17T07:06:17.291Z,8736.00
2018-06-17T07:07:17.314Z,9172.00
2018-06-17T07:08:17.344Z,8744.00
2018-06-17T07:09:17.374Z,7600.00
2018-06-17T07:10:17.394Z,7624.00
2018-06-17T07:11:17.419Z,8192.00
2018-06-17T07:12:17.450Z,8252.00
2018-06-17T07:13:17.475Z,7892.00
2018-06-17T07:14:17.500Z,7900.00
2018-06-17T07:15:17.528Z,8364.00
2018-06-17T07:16:17.554Z,7900.00
2018-06-17T07:17:17.585Z,7136.00
2018-06-17T07:18:17.611Z,7388.00
2018-06-17T07:19:17.638Z,8084.00
2018-06-17T07:20:17.658Z,8736.00
2018-06-17T07:21:17.684Z,8108.00
2018-06-17T07:22:17.716Z,7768.00
2018-06-17T07:23:17.738Z,6456.00
2018-06-17T07:24:17.768Z,6580.00
2018-06-17T07:25:17.794Z,6692.00
2018-06-17T07:26:17.818Z,7964.00
2018-06-17T07:27:17.844Z,9316.00
2018-06-17T07:28:17.878Z,8884.00
2018-06-17T07:29:17.909Z,7832.00
2018-06-17T07:30:17.928Z,7212.00
2018-06-17T07:31:18.005Z,7612.00
2018-06-17T07:32:17.982Z,8664.00
2018-06-17T07:33:18.013Z,8676.00
2018-06-17T07:34:18.037Z,9804.00
2018-06-17T07:35:18.056Z,10196.00
2018-06-17T07:36:18.087Z,10188.00
2018-06-17T07:37:18.113Z,10916.00
2018-06-17T07:38:18.138Z,11120.00
2018-06-17T07:39:18.167Z,10676.00
2018-06-17T07:40:18.192Z,10176.00
2018-06-17T07:41:18.222Z,10012.00
2018-06-17T07:42:18.243Z,11272.00
2018-06-17T07:43:18.269Z,11712.00
2018-06-17T07:44:18.297Z,11540.00
2018-06-17T07:45:18.321Z,10200.00
2018-06-17T07:46:18.356Z,8288.00
2018-06-17T07:47:18.377Z,7332.00
2018-06-17T07:48:18.404Z,6912.00
2018-06-17T07:49:18.489Z,6752.00
2018-06-17T07:50:18.458Z,7672.00
2018-06-17T07:51:18.482Z,9260.00
2018-06-17T07:52:18.518Z,10744.00
2018-06-17T07:53:18.537Z,12668.00
2018-06-17T07:54:18.566Z,13084.00
2018-06-17T07:55:18.597Z,13096.00
2018-06-17T07:56:18.622Z,12804.00
2018-06-17T07:57:18.646Z,13036.00
2018-06-17T07:58:18.675Z,13416.00
2018-06-17T07:59:18.696Z,13420.00
2018-06-17T08:00:18.722Z,13172.00
2018-06-17T08:01:18.751Z,12176.00
2018-06-17T08:02:18.784Z,11536.00
2018-06-17T08:03:18.802Z,11052.00
2018-06-17T08:04:18.850Z,10812.00
2018-06-17T08:05:18.858Z,10624.00
2018-06-17T08:06:18.885Z,10408.00
2018-06-17T08:07:18.915Z,10176.00
2018-06-17T08:08:18.939Z,8780.00
2018-06-17T08:09:18.972Z,7156.00
2018-06-17T08:10:18.993Z,5464.00
2018-06-17T08:11:19.027Z,4888.00
2018-06-17T08:12:19.047Z,4808.00
2018-06-17T08:13:19.080Z,5172.00
2018-06-17T08:14:19.101Z,5244.00
2018-06-17T08:15:19.129Z,5000.00
2018-06-17T08:16:19.156Z,5252.00
2018-06-17T08:17:19.181Z,5708.00
2018-06-17T08:18:19.205Z,6300.00
2018-06-17T08:19:19.231Z,7400.00
2018-06-17T08:20:19.261Z,8816.00
2018-06-17T08:21:19.285Z,10136.00
2018-06-17T08:22:19.322Z,11568.00
2018-06-17T08:23:19.342Z,13152.00
2018-06-17T08:24:19.366Z,12240.00
2018-06-17T08:25:19.396Z,11276.00
2018-06-17T08:26:19.425Z,13072.00
2018-06-17T08:27:19.448Z,13852.00
2018-06-17T08:28:19.484Z,13240.00
2018-06-17T08:29:19.508Z,12336.00
2018-06-17T08:30:19.527Z,11672.00
2018-06-17T08:31:19.568Z,11492.00
2018-06-17T08:32:19.581Z,11092.00
2018-06-17T08:33:19.614Z,11344.00
2018-06-17T08:34:19.640Z,12968.00
2018-06-17T08:35:19.661Z,13244.00
2018-06-17T08:36:19.691Z,12212.00
2018-06-17T08:37:19.717Z,12524.00
2018-06-17T08:38:19.740Z,12984.00
2018-06-17T08:39:19.774Z,12076.00
2018-06-17T08:40:19.796Z,12372.00
2018-06-17T08:41:19.825Z,12544.00
2018-06-17T08:42:19.854Z,12352.00
2018-06-17T08:43:19.879Z,12784.00
2018-06-17T08:44:19.904Z,13532.00
2018-06-17T08:45:19.932Z,12564.00
2018-06-17T08:46:19.964Z,13696.00
2018-06-17T08:47:19.987Z,15040.00
2018-06-17T08:48:20.015Z,15288.00
2018-06-17T08:49:20.046Z,13824.00
2018-06-17T08:50:20.065Z,13524.00
2018-06-17T08:51:20.098Z,14136.00
2018-06-17T08:52:20.121Z,14680.00
2018-06-17T08:53:20.148Z,14004.00
2018-06-17T08:54:20.234Z,14016.00
2018-06-17T08:55:20.206Z,14268.00
2018-06-17T08:56:20.235Z,13752.00
2018-06-17T08:57:20.254Z,13640.00
2018-06-17T08:58:20.284Z,13884.00
2018-06-17T08:59:20.312Z,14120.00
2018-06-17T09:00:20.343Z,13852.00
2018-06-17T09:01:20.367Z,13860.00
2018-06-17T09:02:20.396Z,14752.00
2018-06-17T09:03:20.422Z,13996.00
2018-06-17T09:04:20.456Z,13764.00
2018-06-17T09:05:20.474Z,14228.00
2018-06-17T09:06:20.504Z,16176.00
2018-06-17T09:07:20.529Z,16688.00
2018-06-17T09:08:20.562Z,16160.00
2018-06-17T09:09:20.586Z,15224.00
2018-06-17T09:10:20.617Z,15208.00
2018-06-17T09:11:20.644Z,15332.00
2018-06-17T09:12:20.708Z,16020.00
2018-06-17T09:13:20.700Z,15364.00
2018-06-17T09:14:20.723Z,13580.00
2018-06-17T09:15:20.753Z,11900.00
2018-06-17T09:16:20.788Z,10928.00
2018-06-17T09:17:20.808Z,11024.00
2018-06-17T09:18:20.832Z,12016.00
2018-06-17T09:19:20.877Z,12464.00
2018-06-17T09:20:20.901Z,12432.00
2018-06-17T09:21:20.923Z,12956.00
2018-06-17T09:22:20.946Z,13192.00
2018-06-17T09:23:20.972Z,13940.00
2018-06-17T09:24:20.999Z,15132.00
2018-06-17T09:25:21.140Z,15384.00
2018-06-17T09:26:21.077Z,15020.00
2018-06-17T09:27:21.084Z,14440.00
2018-06-17T09:28:21.116Z,12560.00
2018-06-17T09:29:21.138Z,11672.00
2018-06-17T09:30:21.172Z,11784.00
2018-06-17T09:31:21.195Z,11604.00
2018-06-17T09:32:21.321Z,11876.00
2018-06-17T09:33:21.250Z,12440.00
2018-06-17T09:34:21.279Z,12260.00
2018-06-17T09:35:21.302Z,12968.00
2018-06-17T09:36:21.328Z,13740.00
2018-06-17T09:37:21.359Z,14252.00
2018-06-17T09:38:21.394Z,14428.00
2018-06-17T09:39:21.414Z,15476.00
2018-06-17T09:40:21.446Z,15404.00
2018-06-17T09:41:21.468Z,15284.00
2018-06-17T09:42:21.499Z,13788.00
2018-06-17T09:43:21.526Z,13436.00
2018-06-17T09:44:21.566Z,14168.00
2018-06-17T09:45:21.579Z,13904.00
2018-06-17T09:46:21.602Z,14364.00
2018-06-17T09:47:21.636Z,14080.00
2018-06-17T09:48:21.657Z,15020.00
2018-06-17T09:49:21.703Z,16740.00
2018-06-17T09:50:21.722Z,17120.00
2018-06-17T09:51:21.740Z,17408.00
2018-06-17T09:52:21.771Z,18496.00
2018-06-17T09:53:21.809Z,18976.00
2018-06-17T09:54:21.830Z,18464.00
2018-06-17T09:55:21.856Z,16932.00
2018-06-17T09:56:21.883Z,17728.00
2018-06-17T09:57:21.913Z,17600.00
2018-06-17T09:58:21.942Z,15440.00
2018-06-17T09:59:21.967Z,15044.00
2018-06-17T10:00:21.993Z,14344.00
2018-06-17T10:01:22.026Z,15012.00
2018-06-17T10:02:22.052Z,17824.00
2018-06-17T10:03:22.077Z,16736.00
2018-06-17T10:04:22.103Z,16232.00
2018-06-17T10:05:22.131Z,18112.00
2018-06-17T10:06:22.159Z,18208.00
2018-06-17T10:07:22.190Z,17412.00
2018-06-17T10:08:22.216Z,18080.00
2018-06-17T10:09:22.241Z,16384.00
2018-06-17T10:10:22.286Z,13788.00
2018-06-17T10:11:22.297Z,14468.00
2018-06-17T10:12:22.331Z,16000.00
2018-06-17T10:13:22.356Z,18432.00
2018-06-17T10:14:22.386Z,19648.00
2018-06-17T10:15:22.420Z,18528.00
2018-06-17T10:16:22.438Z,16896.00
2018-06-17T10:17:22.470Z,14144.00
2018-06-17T10:18:22.495Z,13512.00
2018-06-17T10:19:22.526Z,14704.00
2018-06-17T10:20:22.554Z,16184.00
2018-06-17T10:21:22.590Z,17436.00
2018-06-17T10:22:22.615Z,17000.00
2018-06-17T10:23:22.639Z,16404.00
2018-06-17T10:24:22.666Z,15716.00
2018-06-17T10:25:22.704Z,15568.00
2018-06-17T10:26:22.721Z,15300.00
2018-06-17T10:27:22.750Z,15256.00
2018-06-17T10:28:22.783Z,15276.00
2018-06-17T10:29:22.844Z,14916.00
2018-06-17T10:30:22.839Z,15620.00
2018-06-17T10:31:22.861Z,16032.00
2018-06-17T10:32:22.894Z,16320.00
2018-06-17T10:33:22.919Z,16480.00
2018-06-17T10:34:22.949Z,16708.00
2018-06-17T10:35:22.975Z,16732.00
2018-06-17T10:36:23.001Z,16792.00
2018-06-17T10:37:23.031Z,16976.00
2018-06-17T10:38:23.059Z,18496.00
2018-06-17T10:39:23.089Z,19488.00
2018-06-17T10:40:23.114Z,21248.00
2018-06-17T10:41:23.143Z,22528.00
2018-06-17T10:42:23.174Z,22656.00
2018-06-17T10:43:23.211Z,21504.00
2018-06-17T10:44:23.228Z,20896.00
2018-06-17T10:45:23.256Z,18848.00
2018-06-17T10:46:23.284Z,18720.00
2018-06-17T10:47:23.309Z,16992.00
2018-06-17T10:48:23.342Z,14696.00
2018-06-17T10:49:23.376Z,15340.00
2018-06-17T10:50:23.463Z,17180.00
2018-06-17T10:51:23.422Z,19936.00
2018-06-17T10:52:23.457Z,20416.00
2018-06-17T10:53:23.489Z,20608.00
2018-06-17T10:54:23.519Z,21408.00
2018-06-17T10:55:23.540Z,22944.00
2018-06-17T10:56:23.566Z,24256.00
2018-06-17T10:57:23.598Z,23360.00
2018-06-17T10:58:23.626Z,23936.00
2018-06-17T10:59:23.652Z,22528.00
2018-06-17T11:00:23.684Z,27424.00
2018-06-17T11:01:23.708Z,26528.00
2018-06-17T11:02:23.738Z,22944.00
2018-06-17T11:03:23.770Z,20736.00
2018-06-17T11:04:23.797Z,24096.00
2018-06-17T11:05:23.866Z,37312.00
2018-06-17T11:06:23.857Z,43584.00
2018-06-17T11:07:23.884Z,44608.00
2018-06-17T11:08:23.924Z,45952.00
2018-06-17T11:09:23.942Z,46944.00
2018-06-17T11:10:23.972Z,46464.00
2018-06-17T11:11:24.002Z,50016.00
2018-06-17T11:12:24.033Z,52832.00
2018-06-17T11:13:24.058Z,53920.00
2018-06-17T11:14:24.088Z,52224.00
2018-06-17T11:15:24.118Z,48544.00
2018-06-17T11:16:24.147Z,48416.00
2018-06-17T11:17:24.183Z,33824.00
2018-06-17T11:18:24.212Z,20800.00
2018-06-17T11:19:24.243Z,21216.00
2018-06-17T11:20:24.273Z,20256.00
2018-06-17T11:21:24.303Z,22656.00
2018-06-17T11:22:24.343Z,44672.00
2018-06-17T11:23:24.367Z,48896.00
2018-06-17T11:24:24.408Z,61344.00
2018-06-17T11:25:24.443Z,61376.00
2018-06-17T11:26:24.468Z,28544.00
2018-06-17T11:27:24.496Z,28352.00
2018-06-17T11:28:24.530Z,38112.00
2018-06-17T11:29:24.556Z,64672.00
2018-06-17T11:30:24.587Z,54560.00
2018-06-17T11:31:24.617Z,64224.00
2018-06-17T11:32:24.650Z,36480.00
2018-06-17T11:33:24.682Z,35680.00
2018-06-17T11:34:24.716Z,26272.00
2018-06-17T11:35:24.747Z,22560.00
2018-06-17T11:36:24.777Z,21632.00
2018-06-17T11:37:24.812Z,22240.00
2018-06-17T11:38:24.851Z,23328.00
2018-06-17T11:39:24.881Z,18848.00
2018-06-17T11:40:24.902Z,19072.00
2018-06-17T11:41:24.936Z,20928.00
2018-06-17T11:42:24.971Z,18048.00
2018-06-17T11:43:25.001Z,18432.00
2018-06-17T11:44:25.031Z,19744.00
2018-06-17T11:45:25.072Z,21600.00
2018-06-17T11:46:25.094Z,23328.00
2018-06-17T11:47:25.122Z,25152.00
2018-06-17T11:48:25.152Z,27072.00
2018-06-17T11:49:25.190Z,36864.00
2018-06-17T11:50:25.219Z,30432.00
2018-06-17T11:51:25.277Z,30176.00
2018-06-17T11:52:25.282Z,44928.00
2018-06-17T11:53:25.305Z,35616.00
2018-06-17T11:54:25.336Z,31584.00
2018-06-17T11:55:25.369Z,61600.00
2018-06-17T11:56:25.406Z,26528.00
2018-06-17T11:57:25.435Z,26592.00
2018-06-17T11:58:25.456Z,37440.00
2018-06-17T11:59:25.492Z,24416.00
2018-06-17T12:00:25.521Z,23552.00
2018-06-17T12:01:25.552Z,24480.00
2018-06-17T12:02:25.593Z,26688.00
2018-06-17T12:03:25.615Z,28608.00
2018-06-17T12:04:25.647Z,29632.00
2018-06-17T12:05:25.673Z,30304.00
2018-06-17T12:06:25.710Z,28096.00
2018-06-17T12:07:25.738Z,25600.00
2018-06-17T12:08:25.778Z,25888.00
2018-06-17T12:09:25.801Z,25984.00
2018-06-17T12:10:25.828Z,26080.00
2018-06-17T12:11:25.858Z,29888.00
2018-06-17T12:12:25.890Z,31264.00
2018-06-17T12:13:25.923Z,55232.00